sensor_id;sensor_type;location;lat;lon;timestamp;pressure;altitude;pressure_sealevel;temperature;humidity
35918;BME280;22011;59.912;30.300;2023-02-18T00:00:26;100068.63;;;-0.70;65.38
35918;BME280;22011;59.912;30.300;2023-02-18T00:02:54;100060.69;;;-0.68;66.50
35918;BME280;22011;59.912;30.300;2023-02-18T00:05:21;100070.91;;;-0.65;65.11
35918;BME280;22011;59.912;30.300;2023-02-18T00:07:49;100046.88;;;-0.70;64.01
35918;BME280;22011;59.912;30.300;2023-02-18T00:10:17;100048.88;;;-0.74;64.47
35918;BME280;22011;59.912;30.300;2023-02-18T00:12:46;100038.63;;;-0.77;64.23
35918;BME280;22011;59.912;30.300;2023-02-18T00:15:13;100030.06;;;-0.79;64.05
35918;BME280;22011;59.912;30.300;2023-02-18T00:17:41;100024.72;;;-0.77;63.88
35918;BME280;22011;59.912;30.300;2023-02-18T00:20:09;100021.88;;;-0.74;63.53
35918;BME280;22011;59.912;30.300;2023-02-18T00:22:36;100009.75;;;-0.75;63.54
35918;BME280;22011;59.912;30.300;2023-02-18T00:25:04;100019.59;;;-0.79;63.35
35918;BME280;22011;59.912;30.300;2023-02-18T00:27:32;100018.25;;;-0.84;63.07
35918;BME280;22011;59.912;30.300;2023-02-18T00:30:02;100014.81;;;-0.85;63.11
35918;BME280;22011;59.912;30.300;2023-02-18T00:32:33;100004.47;;;-0.86;63.28
35918;BME280;22011;59.912;30.300;2023-02-18T00:35:01;100000.19;;;-0.87;62.72
35918;BME280;22011;59.912;30.300;2023-02-18T00:37:28;99991.50;;;-0.88;62.88
35918;BME280;22011;59.912;30.300;2023-02-18T00:39:56;99984.72;;;-0.90;62.98
35918;BME280;22011;59.912;30.300;2023-02-18T00:42:23;99984.94;;;-0.93;62.74
35918;BME280;22011;59.912;30.300;2023-02-18T00:44:52;99965.19;;;-0.98;63.49
35918;BME280;22011;59.912;30.300;2023-02-18T00:47:22;99959.72;;;-0.94;62.77
35918;BME280;22011;59.912;30.300;2023-02-18T00:49:49;99967.56;;;-0.94;62.95
35918;BME280;22011;59.912;30.300;2023-02-18T00:52:17;99944.53;;;-0.89;62.81
35918;BME280;22011;59.912;30.300;2023-02-18T00:54:44;99954.78;;;-0.86;62.69
35918;BME280;22011;59.912;30.300;2023-02-18T00:57:12;99945.97;;;-0.85;62.33
35918;BME280;22011;59.912;30.300;2023-02-18T00:59:39;99947.16;;;-0.89;62.11
35918;BME280;22011;59.912;30.300;2023-02-18T01:02:07;99950.59;;;-0.89;61.87
35918;BME280;22011;59.912;30.300;2023-02-18T01:04:36;99925.28;;;-0.88;62.27
35918;BME280;22011;59.912;30.300;2023-02-18T01:07:03;99918.28;;;-0.88;62.20
35918;BME280;22011;59.912;30.300;2023-02-18T01:09:31;99921.50;;;-0.84;62.19
35918;BME280;22011;59.912;30.300;2023-02-18T01:11:58;99911.75;;;-0.82;61.51
35918;BME280;22011;59.912;30.300;2023-02-18T01:14:26;99905.09;;;-0.86;62.18
35918;BME280;22011;59.912;30.300;2023-02-18T01:16:53;99896.28;;;-0.85;61.86
35918;BME280;22011;59.912;30.300;2023-02-18T01:19:21;99891.66;;;-0.82;61.84
35918;BME280;22011;59.912;30.300;2023-02-18T01:21:50;99893.81;;;-0.76;61.78
35918;BME280;22011;59.912;30.300;2023-02-18T01:24:17;99884.44;;;-0.78;61.86
35918;BME280;22011;59.912;30.300;2023-02-18T01:26:45;99867.66;;;-0.76;61.61
35918;BME280;22011;59.912;30.300;2023-02-18T01:29:14;99876.13;;;-0.72;61.00
35918;BME280;22011;59.912;30.300;2023-02-18T01:31:42;99861.59;;;-0.76;60.71
35918;BME280;22011;59.912;30.300;2023-02-18T01:34:09;99867.28;;;-0.82;60.91
35918;BME280;22011;59.912;30.300;2023-02-18T01:36:37;99843.75;;;-0.82;60.97
35918;BME280;22011;59.912;30.300;2023-02-18T01:39:05;99837.59;;;-0.81;61.01
35918;BME280;22011;59.912;30.300;2023-02-18T01:41:33;99846.59;;;-0.85;61.02
35918;BME280;22011;59.912;30.300;2023-02-18T01:44:15;99830.81;;;-0.73;61.04
35918;BME280;22011;59.912;30.300;2023-02-18T01:46:45;99834.00;;;-0.80;60.98
35918;BME280;22011;59.912;30.300;2023-02-18T01:49:15;99826.44;;;-0.72;60.88
35918;BME280;22011;59.912;30.300;2023-02-18T01:51:46;99815.13;;;-0.73;60.49
35918;BME280;22011;59.912;30.300;2023-02-18T01:54:20;99815.13;;;-0.73;60.87
35918;BME280;22011;59.912;30.300;2023-02-18T01:56:50;99822.72;;;-0.81;60.61
35918;BME280;22011;59.912;30.300;2023-02-18T01:59:25;99806.78;;;-0.78;61.49
35918;BME280;22011;59.912;30.300;2023-02-18T02:01:54;99799.31;;;-0.82;60.66
35918;BME280;22011;59.912;30.300;2023-02-18T02:04:22;99802.03;;;-0.84;60.54
35918;BME280;22011;59.912;30.300;2023-02-18T02:06:50;99791.22;;;-0.79;60.37
35918;BME280;22011;59.912;30.300;2023-02-18T02:09:20;99780.53;;;-0.76;60.47
35918;BME280;22011;59.912;30.300;2023-02-18T02:12:15;99771.63;;;-0.62;60.42
35918;BME280;22011;59.912;30.300;2023-02-18T02:15:02;99770.06;;;-0.65;60.03
35918;BME280;22011;59.912;30.300;2023-02-18T02:17:37;99754.72;;;-0.70;60.18
35918;BME280;22011;59.912;30.300;2023-02-18T02:20:31;99742.38;;;-0.68;59.72
35918;BME280;22011;59.912;30.300;2023-02-18T02:23:37;99739.41;;;-0.63;60.61
35918;BME280;22011;59.912;30.300;2023-02-18T02:26:31;99737.63;;;-0.62;60.45
35918;BME280;22011;59.912;30.300;2023-02-18T02:35:33;99717.28;;;-0.92;60.05
35918;BME280;22011;59.912;30.300;2023-02-18T02:38:07;99709.19;;;-1.01;59.65
35918;BME280;22011;59.912;30.300;2023-02-18T02:40:44;99699.19;;;-0.95;60.37
35918;BME280;22011;59.912;30.300;2023-02-18T02:43:20;99695.63;;;-0.94;59.86
35918;BME280;22011;59.912;30.300;2023-02-18T02:45:55;99706.56;;;-1.01;59.66
35918;BME280;22011;59.912;30.300;2023-02-18T02:48:32;99694.69;;;-0.93;60.57
35918;BME280;22011;59.912;30.300;2023-02-18T02:51:09;99692.19;;;-0.95;60.21
35918;BME280;22011;59.912;30.300;2023-02-18T02:53:40;99688.97;;;-0.99;59.82
35918;BME280;22011;59.912;30.300;2023-02-18T02:56:12;99667.81;;;-0.95;59.59
35918;BME280;22011;59.912;30.300;2023-02-18T02:58:40;99668.06;;;-0.99;59.77
35918;BME280;22011;59.912;30.300;2023-02-18T03:01:23;99659.38;;;-0.88;60.32
35918;BME280;22011;59.912;30.300;2023-02-18T03:07:01;99656.41;;;-0.83;59.86
35918;BME280;22011;59.912;30.300;2023-02-18T03:09:42;99640.97;;;-0.86;59.74
35918;BME280;22011;59.912;30.300;2023-02-18T03:12:19;99638.22;;;-0.85;60.78
35918;BME280;22011;59.912;30.300;2023-02-18T03:14:56;99625.28;;;-0.86;60.38
35918;BME280;22011;59.912;30.300;2023-02-18T03:17:29;99622.53;;;-0.96;60.08
35918;BME280;22011;59.912;30.300;2023-02-18T03:20:02;99624.22;;;-0.95;58.90
35918;BME280;22011;59.912;30.300;2023-02-18T03:22:37;99623.50;;;-0.86;60.14
35918;BME280;22011;59.912;30.300;2023-02-18T03:25:06;99612.81;;;-0.94;59.63
35918;BME280;22011;59.912;30.300;2023-02-18T03:27:37;99615.28;;;-0.92;59.36
35918;BME280;22011;59.912;30.300;2023-02-18T03:30:12;99622.44;;;-0.94;60.22
35918;BME280;22011;59.912;30.300;2023-02-18T03:32:41;99617.19;;;-0.94;59.78
35918;BME280;22011;59.912;30.300;2023-02-18T03:35:15;99619.09;;;-0.85;59.68
35918;BME280;22011;59.912;30.300;2023-02-18T03:37:47;99616.00;;;-0.79;60.57
35918;BME280;22011;59.912;30.300;2023-02-18T03:40:17;99618.59;;;-0.79;59.61
35918;BME280;22011;59.912;30.300;2023-02-18T03:42:45;99630.25;;;-0.83;59.24
35918;BME280;22011;59.912;30.300;2023-02-18T03:45:13;99620.41;;;-0.80;59.21
35918;BME280;22011;59.912;30.300;2023-02-18T03:47:41;99618.84;;;-0.82;58.88
35918;BME280;22011;59.912;30.300;2023-02-18T03:50:09;99610.41;;;-0.86;58.71
35918;BME280;22011;59.912;30.300;2023-02-18T03:52:36;99617.66;;;-0.89;58.87
35918;BME280;22011;59.912;30.300;2023-02-18T03:55:06;99618.03;;;-0.94;58.88
35918;BME280;22011;59.912;30.300;2023-02-18T03:57:34;99613.63;;;-0.93;59.09
35918;BME280;22011;59.912;30.300;2023-02-18T04:00:03;99620.63;;;-0.83;58.90
35918;BME280;22011;59.912;30.300;2023-02-18T04:02:39;99610.41;;;-0.86;58.40
35918;BME280;22011;59.912;30.300;2023-02-18T04:05:07;99602.47;;;-0.95;58.80
35918;BME280;22011;59.912;30.300;2023-02-18T04:07:35;99579.53;;;-1.03;59.00
35918;BME280;22011;59.912;30.300;2023-02-18T04:10:03;99593.72;;;-1.06;59.37
35918;BME280;22011;59.912;30.300;2023-02-18T04:12:32;99581.81;;;-1.10;59.65
35918;BME280;22011;59.912;30.300;2023-02-18T04:14:59;99577.56;;;-1.11;59.13
35918;BME280;22011;59.912;30.300;2023-02-18T04:17:27;99588.22;;;-1.03;59.17
35918;BME280;22011;59.912;30.300;2023-02-18T04:19:54;99580.75;;;-1.07;58.80
35918;BME280;22011;59.912;30.300;2023-02-18T04:22:22;99573.88;;;-1.08;59.16
35918;BME280;22011;59.912;30.300;2023-02-18T04:24:49;99578.97;;;-1.07;58.80
35918;BME280;22011;59.912;30.300;2023-02-18T04:27:17;99570.31;;;-1.07;59.28
35918;BME280;22011;59.912;30.300;2023-02-18T04:29:46;99569.34;;;-1.06;60.52
35918;BME280;22011;59.912;30.300;2023-02-18T04:32:13;99567.56;;;-1.06;59.83
35918;BME280;22011;59.912;30.300;2023-02-18T04:34:41;99564.00;;;-1.05;58.92
35918;BME280;22011;59.912;30.300;2023-02-18T04:37:08;99549.94;;;-1.04;59.02
35918;BME280;22011;59.912;30.300;2023-02-18T04:39:36;99551.06;;;-1.06;59.15
35918;BME280;22011;59.912;30.300;2023-02-18T04:42:03;99550.94;;;-1.05;59.54
35918;BME280;22011;59.912;30.300;2023-02-18T04:44:34;99564.94;;;-1.06;59.50
35918;BME280;22011;59.912;30.300;2023-02-18T04:47:03;99540.72;;;-1.08;58.94
35918;BME280;22011;59.912;30.300;2023-02-18T04:49:31;99554.03;;;-1.11;59.10
35918;BME280;22011;59.912;30.300;2023-02-18T04:51:58;99536.81;;;-1.13;59.18
35918;BME280;22011;59.912;30.300;2023-02-18T04:54:26;99549.63;;;-1.10;59.51
35918;BME280;22011;59.912;30.300;2023-02-18T04:56:53;99543.81;;;-1.14;58.92
35918;BME280;22011;59.912;30.300;2023-02-18T04:59:22;99537.50;;;-1.11;59.07
35918;BME280;22011;59.912;30.300;2023-02-18T05:01:49;99535.03;;;-1.13;59.41
35918;BME280;22011;59.912;30.300;2023-02-18T05:04:19;99530.97;;;-1.06;59.50
35918;BME280;22011;59.912;30.300;2023-02-18T05:06:46;99540.72;;;-1.08;59.03
35918;BME280;22011;59.912;30.300;2023-02-18T05:09:14;99525.88;;;-1.07;58.94
35918;BME280;22011;59.912;30.300;2023-02-18T05:11:43;99523.97;;;-1.05;59.11
35918;BME280;22011;59.912;30.300;2023-02-18T05:14:10;99518.72;;;-1.05;59.14
35918;BME280;22011;59.912;30.300;2023-02-18T05:16:38;99528.97;;;-1.13;58.98
35918;BME280;22011;59.912;30.300;2023-02-18T05:19:06;99511.84;;;-1.17;59.50
35918;BME280;22011;59.912;30.300;2023-02-18T05:21:35;99519.81;;;-1.19;60.07
35918;BME280;22011;59.912;30.300;2023-02-18T05:24:03;99521.00;;;-1.23;59.40
35918;BME280;22011;59.912;30.300;2023-02-18T05:26:30;99505.44;;;-1.24;60.01
35918;BME280;22011;59.912;30.300;2023-02-18T05:28:58;99518.88;;;-1.18;59.94
35918;BME280;22011;59.912;30.300;2023-02-18T05:31:26;99509.84;;;-1.14;60.22
35918;BME280;22011;59.912;30.300;2023-02-18T05:33:53;99511.50;;;-1.13;59.41
35918;BME280;22011;59.912;30.300;2023-02-18T05:36:21;99511.63;;;-1.14;59.92
35918;BME280;22011;59.912;30.300;2023-02-18T05:38:49;99507.47;;;-1.17;59.34
35918;BME280;22011;59.912;30.300;2023-02-18T05:41:17;99504.72;;;-1.15;60.13
35918;BME280;22011;59.912;30.300;2023-02-18T05:43:45;99497.34;;;-1.10;59.36
35918;BME280;22011;59.912;30.300;2023-02-18T05:46:30;99478.94;;;-1.09;59.23
35918;BME280;22011;59.912;30.300;2023-02-18T05:48:58;99498.88;;;-1.08;59.47
35918;BME280;22011;59.912;30.300;2023-02-18T05:51:25;99479.19;;;-1.12;59.50
35918;BME280;22011;59.912;30.300;2023-02-18T05:53:54;99486.56;;;-1.17;59.52
35918;BME280;22011;59.912;30.300;2023-02-18T05:56:22;99478.50;;;-1.25;59.75
35918;BME280;22011;59.912;30.300;2023-02-18T05:58:49;99486.78;;;-1.20;59.88
35918;BME280;22011;59.912;30.300;2023-02-18T06:01:17;99473.03;;;-1.22;59.63
35918;BME280;22011;59.912;30.300;2023-02-18T06:03:44;99465.66;;;-1.28;60.43
35918;BME280;22011;59.912;30.300;2023-02-18T06:06:12;99469.59;;;-1.34;60.51
35918;BME280;22011;59.912;30.300;2023-02-18T06:08:39;99481.81;;;-1.34;61.06
35918;BME280;22011;59.912;30.300;2023-02-18T06:11:08;99470.31;;;-1.32;60.67
35918;BME280;22011;59.912;30.300;2023-02-18T06:13:36;99459.72;;;-1.30;60.67
35918;BME280;22011;59.912;30.300;2023-02-18T06:16:04;99458.28;;;-1.23;60.18
35918;BME280;22011;59.912;30.300;2023-02-18T06:18:31;99453.53;;;-1.18;60.37
35918;BME280;22011;59.912;30.300;2023-02-18T06:20:59;99455.31;;;-1.18;60.06
35918;BME280;22011;59.912;30.300;2023-02-18T06:23:26;99451.28;;;-1.22;59.92
35918;BME280;22011;59.912;30.300;2023-02-18T06:25:54;99454.25;;;-1.27;59.69
35918;BME280;22011;59.912;30.300;2023-02-18T06:28:23;99447.97;;;-1.24;60.05
35918;BME280;22011;59.912;30.300;2023-02-18T06:30:50;99473.50;;;-1.28;59.78
35918;BME280;22011;59.912;30.300;2023-02-18T06:33:18;99440.25;;;-1.37;60.20
35918;BME280;22011;59.912;30.300;2023-02-18T06:35:52;99447.63;;;-1.31;61.08
35918;BME280;22011;59.912;30.300;2023-02-18T06:38:20;99434.44;;;-1.29;61.26
35918;BME280;22011;59.912;30.300;2023-02-18T06:40:48;99449.88;;;-1.26;60.53
35918;BME280;22011;59.912;30.300;2023-02-18T06:43:17;99442.63;;;-1.23;60.29
35918;BME280;22011;59.912;30.300;2023-02-18T06:45:46;99431.66;;;-1.17;60.20
35918;BME280;22011;59.912;30.300;2023-02-18T06:48:14;99438.19;;;-1.11;60.47
35918;BME280;22011;59.912;30.300;2023-02-18T06:50:42;99441.13;;;-1.05;60.49
35918;BME280;22011;59.912;30.300;2023-02-18T06:53:10;99426.59;;;-0.98;59.82
35918;BME280;22011;59.912;30.300;2023-02-18T06:55:38;99414.91;;;-0.93;59.90
35918;BME280;22011;59.912;30.300;2023-02-18T06:58:07;99414.28;;;-0.86;59.90
35918;BME280;22011;59.912;30.300;2023-02-18T07:00:35;99425.00;;;-0.89;59.74
35918;BME280;22011;59.912;30.300;2023-02-18T07:03:05;99423.47;;;-0.91;60.42
35918;BME280;22011;59.912;30.300;2023-02-18T07:05:33;99425.63;;;-0.96;59.97
35918;BME280;22011;59.912;30.300;2023-02-18T07:08:00;99423.13;;;-0.98;59.59
35918;BME280;22011;59.912;30.300;2023-02-18T07:10:28;99422.31;;;-0.99;60.72
35918;BME280;22011;59.912;30.300;2023-02-18T07:12:56;99418.50;;;-0.94;60.18
35918;BME280;22011;59.912;30.300;2023-02-18T07:15:23;99416.84;;;-0.95;59.30
35918;BME280;22011;59.912;30.300;2023-02-18T07:17:53;99408.38;;;-0.88;59.58
35918;BME280;22011;59.912;30.300;2023-02-18T07:20:22;99403.47;;;-0.81;59.17
35918;BME280;22011;59.912;30.300;2023-02-18T07:22:50;99413.91;;;-0.81;59.17
35918;BME280;22011;59.912;30.300;2023-02-18T07:25:18;99412.84;;;-0.79;59.29
35918;BME280;22011;59.912;30.300;2023-02-18T07:27:46;99401.69;;;-0.81;59.64
35918;BME280;22011;59.912;30.300;2023-02-18T07:30:14;99403.22;;;-0.78;59.35
35918;BME280;22011;59.912;30.300;2023-02-18T07:32:42;99403.66;;;-0.73;59.16
35918;BME280;22011;59.912;30.300;2023-02-18T07:35:12;99402.06;;;-0.64;58.91
35918;BME280;22011;59.912;30.300;2023-02-18T07:37:44;99398.88;;;-0.68;59.15
35918;BME280;22011;59.912;30.300;2023-02-18T07:40:13;99399.13;;;-0.71;58.96
35918;BME280;22011;59.912;30.300;2023-02-18T07:42:41;99399.13;;;-0.71;59.65
35918;BME280;22011;59.912;30.300;2023-02-18T07:45:09;99401.75;;;-0.71;59.46
35918;BME280;22011;59.912;30.300;2023-02-18T07:47:37;99403.28;;;-0.69;58.92
35918;BME280;22011;59.912;30.300;2023-02-18T07:50:07;99394.22;;;-0.64;59.71
35918;BME280;22011;59.912;30.300;2023-02-18T07:52:35;99392.88;;;-0.59;59.35
35918;BME280;22011;59.912;30.300;2023-02-18T07:55:05;99399.53;;;-0.55;59.14
35918;BME280;22011;59.912;30.300;2023-02-18T07:57:32;99397.03;;;-0.56;59.35
35918;BME280;22011;59.912;30.300;2023-02-18T08:00:20;99402.00;;;-0.53;59.22
35918;BME280;22011;59.912;30.300;2023-02-18T08:02:48;99390.84;;;-0.55;59.31
35918;BME280;22011;59.912;30.300;2023-02-18T08:05:15;99390.72;;;-0.54;58.95
35918;BME280;22011;59.912;30.300;2023-02-18T08:07:42;99398.13;;;-0.59;59.48
35918;BME280;22011;59.912;30.300;2023-02-18T08:10:12;99393.97;;;-0.61;59.98
35918;BME280;22011;59.912;30.300;2023-02-18T08:12:39;99396.78;;;-0.53;59.38
35918;BME280;22011;59.912;30.300;2023-02-18T08:15:07;99397.78;;;-0.45;59.26
35918;BME280;22011;59.912;30.300;2023-02-18T08:17:35;99394.66;;;-0.39;58.94
35918;BME280;22011;59.912;30.300;2023-02-18T08:20:03;99396.06;;;-0.35;59.17
35918;BME280;22011;59.912;30.300;2023-02-18T08:22:30;99394.97;;;-0.32;60.28
35918;BME280;22011;59.912;30.300;2023-02-18T08:24:58;99388.66;;;-0.29;59.57
35918;BME280;22011;59.912;30.300;2023-02-18T08:27:27;99391.47;;;-0.21;59.47
35918;BME280;22011;59.912;30.300;2023-02-18T08:29:54;99389.22;;;-0.26;58.80
35918;BME280;22011;59.912;30.300;2023-02-18T08:32:22;99390.75;;;-0.23;58.62
35918;BME280;22011;59.912;30.300;2023-02-18T08:34:52;99380.50;;;-0.06;58.95
35918;BME280;22011;59.912;30.300;2023-02-18T08:37:19;99385.84;;;-0.38;59.18
35918;BME280;22011;59.912;30.300;2023-02-18T08:39:47;99384.78;;;-0.35;59.84
35918;BME280;22011;59.912;30.300;2023-02-18T08:42:15;99375.13;;;-0.35;59.47
35918;BME280;22011;59.912;30.300;2023-02-18T08:44:44;99368.28;;;-0.26;59.16
35918;BME280;22011;59.912;30.300;2023-02-18T08:47:11;99372.56;;;-0.25;59.02
35918;BME280;22011;59.912;30.300;2023-02-18T08:49:39;99360.75;;;-0.19;58.56
35918;BME280;22011;59.912;30.300;2023-02-18T08:52:06;99370.50;;;-0.21;58.40
35918;BME280;22011;59.912;30.300;2023-02-18T08:54:34;99377.72;;;-0.14;59.06
35918;BME280;22011;59.912;30.300;2023-02-18T08:57:01;99380.63;;;-0.07;58.86
35918;BME280;22011;59.912;30.300;2023-02-18T08:59:29;99366.31;;;-0.03;58.55
35918;BME280;22011;59.912;30.300;2023-02-18T09:01:58;99367.97;;;-0.02;59.60
35918;BME280;22011;59.912;30.300;2023-02-18T09:04:25;99359.69;;;-0.07;58.13
35918;BME280;22011;59.912;30.300;2023-02-18T09:06:53;99361.63;;;0.00;58.50
35918;BME280;22011;59.912;30.300;2023-02-18T09:09:20;99365.63;;;-0.05;58.87
35918;BME280;22011;59.912;30.300;2023-02-18T09:11:48;99364.41;;;-0.01;58.68
35918;BME280;22011;59.912;30.300;2023-02-18T09:14:16;99358.75;;;0.04;58.29
35918;BME280;22011;59.912;30.300;2023-02-18T09:16:43;99350.22;;;0.11;58.13
35918;BME280;22011;59.912;30.300;2023-02-18T09:19:12;99361.66;;;0.10;57.93
35918;BME280;22011;59.912;30.300;2023-02-18T09:21:40;99357.78;;;0.05;58.12
35918;BME280;22011;59.912;30.300;2023-02-18T09:24:07;99354.34;;;0.04;57.96
35918;BME280;22011;59.912;30.300;2023-02-18T09:26:35;99352.41;;;0.06;58.10
35918;BME280;22011;59.912;30.300;2023-02-18T09:29:04;99354.34;;;0.04;57.07
35918;BME280;22011;59.912;30.300;2023-02-18T09:31:32;99356.81;;;-0.04;57.18
35918;BME280;22011;59.912;30.300;2023-02-18T09:34:02;99347.03;;;-0.02;57.58
35918;BME280;22011;59.912;30.300;2023-02-18T09:36:32;99358.88;;;-0.08;57.93
35918;BME280;22011;59.912;30.300;2023-02-18T09:38:59;99344.81;;;-0.07;57.77
35918;BME280;22011;59.912;30.300;2023-02-18T09:41:32;99352.69;;;0.03;57.84
35918;BME280;22011;59.912;30.300;2023-02-18T09:44:02;99348.00;;;-0.03;58.27
35918;BME280;22011;59.912;30.300;2023-02-18T09:46:33;99348.53;;;0.00;57.86
35918;BME280;22011;59.912;30.300;2023-02-18T09:49:05;99345.78;;;0.02;58.31
35918;BME280;22011;59.912;30.300;2023-02-18T09:51:35;99347.88;;;-0.02;57.57
35918;BME280;22011;59.912;30.300;2023-02-18T09:54:02;99338.47;;;-0.04;58.43
35918;BME280;22011;59.912;30.300;2023-02-18T09:56:32;99347.31;;;0.05;58.15
35918;BME280;22011;59.912;30.300;2023-02-18T09:59:04;99337.13;;;0.11;58.19
35918;BME280;22011;59.912;30.300;2023-02-18T10:01:36;99330.66;;;0.15;58.42
35918;BME280;22011;59.912;30.300;2023-02-18T10:04:11;99333.16;;;0.26;58.35
35918;BME280;22011;59.912;30.300;2023-02-18T10:06:42;99324.91;;;0.31;57.90
35918;BME280;22011;59.912;30.300;2023-02-18T10:09:17;99331.81;;;0.32;57.44
35918;BME280;22011;59.912;30.300;2023-02-18T10:11:48;99331.25;;;0.28;57.25
35918;BME280;22011;59.912;30.300;2023-02-18T10:14:17;99326.25;;;0.16;57.24
35918;BME280;22011;59.912;30.300;2023-02-18T10:16:46;99328.03;;;0.15;57.74
35918;BME280;22011;59.912;30.300;2023-02-18T10:19:22;99322.00;;;0.24;58.36
35918;BME280;22011;59.912;30.300;2023-02-18T10:21:52;99314.25;;;0.13;57.82
35918;BME280;22011;59.912;30.300;2023-02-18T10:24:27;99303.09;;;0.11;57.84
35918;BME280;22011;59.912;30.300;2023-02-18T10:26:55;99311.59;;;0.04;57.34
35918;BME280;22011;59.912;30.300;2023-02-18T10:29:24;99319.06;;;0.08;58.11
35918;BME280;22011;59.912;30.300;2023-02-18T10:31:56;99302.81;;;0.14;57.83
35918;BME280;22011;59.912;30.300;2023-02-18T10:34:36;99302.53;;;0.17;58.42
35918;BME280;22011;59.912;30.300;2023-02-18T10:37:18;99299.53;;;0.22;58.27
35918;BME280;22011;59.912;30.300;2023-02-18T10:40:01;99299.25;;;0.25;57.96
35918;BME280;22011;59.912;30.300;2023-02-18T10:42:38;99306.41;;;0.23;57.86
35918;BME280;22011;59.912;30.300;2023-02-18T10:45:15;99297.16;;;0.19;57.98
35918;BME280;22011;59.912;30.300;2023-02-18T10:47:50;99294.69;;;0.17;58.37
35918;BME280;22011;59.912;30.300;2023-02-18T10:50:27;99294.28;;;0.22;58.29
35918;BME280;22011;59.912;30.300;2023-02-18T10:53:00;99296.63;;;0.25;58.23
35918;BME280;22011;59.912;30.300;2023-02-18T10:55:34;99296.78;;;0.33;58.08
35918;BME280;22011;59.912;30.300;2023-02-18T10:58:03;99288.91;;;0.23;57.92
35918;BME280;22011;59.912;30.300;2023-02-18T11:00:34;99288.09;;;0.32;58.45
35918;BME280;22011;59.912;30.300;2023-02-18T11:03:12;99293.06;;;0.36;58.35
35918;BME280;22011;59.912;30.300;2023-02-18T11:05:40;99281.72;;;0.16;57.87
35918;BME280;22011;59.912;30.300;2023-02-18T11:08:14;99284.06;;;0.19;58.55
35918;BME280;22011;59.912;30.300;2023-02-18T11:10:44;99285.44;;;0.13;58.81
35918;BME280;22011;59.912;30.300;2023-02-18T11:13:14;99278.56;;;0.12;59.15
35918;BME280;22011;59.912;30.300;2023-02-18T11:15:54;99279.94;;;0.26;59.09
35918;BME280;22011;59.912;30.300;2023-02-18T11:18:36;99272.50;;;0.31;59.29
35918;BME280;22011;59.912;30.300;2023-02-18T11:21:08;99281.06;;;0.23;58.46
35918;BME280;22011;59.912;30.300;2023-02-18T11:23:48;99272.78;;;0.18;58.59
35918;BME280;22011;59.912;30.300;2023-02-18T11:26:19;99271.78;;;0.10;58.25
35918;BME280;22011;59.912;30.300;2023-02-18T11:28:57;99267.81;;;0.15;58.96
35918;BME280;22011;59.912;30.300;2023-02-18T11:31:44;99263.53;;;0.14;58.74
35918;BME280;22011;59.912;30.300;2023-02-18T11:34:15;99263.94;;;0.10;58.65
35918;BME280;22011;59.912;30.300;2023-02-18T11:36:45;99262.69;;;0.04;58.99
35918;BME280;22011;59.912;30.300;2023-02-18T11:39:19;99268.34;;;0.09;59.61
35918;BME280;22011;59.912;30.300;2023-02-18T11:41:53;99258.28;;;0.14;59.45
35918;BME280;22011;59.912;30.300;2023-02-18T11:44:27;99261.88;;;0.23;58.52
35918;BME280;22011;59.912;30.300;2023-02-18T11:46:58;99263.13;;;0.28;58.57
35918;BME280;22011;59.912;30.300;2023-02-18T11:49:27;99251.00;;;0.27;58.12
35918;BME280;22011;59.912;30.300;2023-02-18T11:52:03;99251.28;;;0.34;58.49
35918;BME280;22011;59.912;30.300;2023-02-18T11:54:33;99251.00;;;0.27;58.52
35918;BME280;22011;59.912;30.300;2023-02-18T11:57:02;99242.19;;;0.28;58.50
35918;BME280;22011;59.912;30.300;2023-02-18T11:59:33;99249.06;;;0.29;57.92
35918;BME280;22011;59.912;30.300;2023-02-18T12:02:11;99247.41;;;0.28;58.95
35918;BME280;22011;59.912;30.300;2023-02-18T12:04:46;99237.47;;;0.22;58.41
35918;BME280;22011;59.912;30.300;2023-02-18T12:07:19;99235.56;;;0.24;58.33
35918;BME280;22011;59.912;30.300;2023-02-18T12:09:54;99244.09;;;0.26;58.64
35918;BME280;22011;59.912;30.300;2023-02-18T12:12:25;99245.47;;;0.21;58.62
35918;BME280;22011;59.912;30.300;2023-02-18T12:14:54;99242.72;;;0.22;58.29
35918;BME280;22011;59.912;30.300;2023-02-18T12:17:34;99236.81;;;0.30;58.77
35918;BME280;22011;59.912;30.300;2023-02-18T12:20:25;99233.91;;;0.43;58.31
35918;BME280;22011;59.912;30.300;2023-02-18T12:23:04;99235.28;;;0.37;58.77
35918;BME280;22011;59.912;30.300;2023-02-18T12:25:41;99225.91;;;0.44;59.14
35918;BME280;22011;59.912;30.300;2023-02-18T12:28:26;99225.22;;;0.52;59.14
35918;BME280;22011;59.912;30.300;2023-02-18T12:34:22;99239.84;;;0.45;58.44
35918;BME280;22011;59.912;30.300;2023-02-18T12:37:02;99244.13;;;0.46;58.65
35918;BME280;22011;59.912;30.300;2023-02-18T12:39:51;99233.91;;;0.43;58.37
35918;BME280;22011;59.912;30.300;2023-02-18T12:42:35;99235.00;;;0.30;58.54
35918;BME280;22011;59.912;30.300;2023-02-18T12:45:20;99235.56;;;0.34;60.04
35918;BME280;22011;59.912;30.300;2023-02-18T12:48:07;99216.13;;;0.37;58.68
35918;BME280;22011;59.912;30.300;2023-02-18T12:50:56;99239.69;;;0.37;58.94
35918;BME280;22011;59.912;30.300;2023-02-18T12:53:54;99228.41;;;0.36;59.05
35918;BME280;22011;59.912;30.300;2023-02-18T12:59:35;99229.91;;;0.19;59.04
35918;BME280;22011;59.912;30.300;2023-02-18T13:02:17;99222.72;;;0.12;59.51
35918;BME280;22011;59.912;30.300;2023-02-18T13:04:53;99219.56;;;0.18;59.23
35918;BME280;22011;59.912;30.300;2023-02-18T13:07:49;99227.16;;;0.30;59.05
35918;BME280;22011;59.912;30.300;2023-02-18T13:10:43;99227.16;;;0.30;59.68
35918;BME280;22011;59.912;30.300;2023-02-18T13:13:18;99212.94;;;0.23;58.84
35918;BME280;22011;59.912;30.300;2023-02-18T13:15:51;99215.84;;;0.20;59.03
35918;BME280;22011;59.912;30.300;2023-02-18T13:18:23;99219.69;;;0.16;58.94
35918;BME280;22011;59.912;30.300;2023-02-18T13:20:56;99222.31;;;0.16;58.80
35918;BME280;22011;59.912;30.300;2023-02-18T13:23:27;99222.03;;;0.19;59.49
35918;BME280;22011;59.912;30.300;2023-02-18T13:25:59;99222.72;;;0.12;58.67
35918;BME280;22011;59.912;30.300;2023-02-18T13:28:32;99221.22;;;0.09;59.02